createdAt,value
2023-04-28T00:01:04.378Z,101333.00
2023-04-28T00:03:34.515Z,101346.00
2023-04-28T00:06:04.549Z,101337.00
2023-04-28T00:08:37.369Z,101324.00
2023-04-28T00:11:07.541Z,101328.00
2023-04-28T00:13:37.508Z,101324.00
2023-04-28T00:16:08.605Z,101325.00
2023-04-28T00:18:38.586Z,101329.00
2023-04-28T00:21:08.805Z,101330.00
2023-04-28T00:23:41.350Z,101327.00
2023-04-28T00:26:12.490Z,101329.00
2023-04-28T00:28:42.461Z,101332.00
2023-04-28T00:31:16.705Z,101331.00
2023-04-28T00:33:47.817Z,101317.00
2023-04-28T00:36:17.797Z,101323.00
2023-04-28T00:38:50.378Z,101315.00
2023-04-28T00:41:20.340Z,101325.00
2023-04-28T00:43:51.615Z,101315.00
2023-04-28T00:46:25.861Z,101323.00
2023-04-28T00:48:56.203Z,101317.00
2023-04-28T00:51:27.819Z,101312.00
2023-04-28T00:54:00.604Z,101317.00
2023-04-28T00:56:32.173Z,101318.00
2023-04-28T00:59:02.176Z,101318.00
2023-04-28T01:01:33.702Z,101311.00
2023-04-28T01:04:04.349Z,101313.00
2023-04-28T01:06:36.157Z,101304.00
2023-04-28T01:09:08.723Z,101310.00
2023-04-28T01:11:38.680Z,101307.00
2023-04-28T01:14:08.668Z,101291.00
2023-04-28T01:16:39.089Z,101311.00
2023-04-28T01:19:11.608Z,101305.00
2023-04-28T01:21:41.595Z,101305.00
2023-04-28T01:24:14.690Z,101306.00
2023-04-28T01:26:44.895Z,101297.00
2023-04-28T01:29:14.966Z,101294.00
2023-04-28T01:31:45.092Z,101291.00
2023-04-28T01:34:15.321Z,101294.00
2023-04-28T01:36:45.461Z,101285.00
2023-04-28T01:39:18.093Z,101284.00
2023-04-28T01:41:48.156Z,101287.00
2023-04-28T01:44:18.389Z,101286.00
2023-04-28T01:46:48.631Z,101284.00
2023-04-28T01:49:18.566Z,101281.00
2023-04-28T01:51:48.617Z,101284.00
2023-04-28T01:54:21.272Z,101280.00
2023-04-28T01:56:51.245Z,101279.00
2023-04-28T01:59:21.648Z,101277.00
2023-04-28T02:01:51.677Z,101274.00
2023-04-28T02:04:21.755Z,101264.00
2023-04-28T02:06:51.837Z,101277.00
2023-04-28T02:09:24.385Z,101277.00
2023-04-28T02:11:54.407Z,101276.00
2023-04-28T02:14:24.457Z,101273.00
2023-04-28T02:16:54.502Z,101266.00
2023-04-28T02:19:24.482Z,101261.00
2023-04-28T02:21:54.425Z,101265.00
2023-04-28T02:24:27.017Z,101257.00
2023-04-28T02:26:57.458Z,101270.00
2023-04-28T02:29:27.827Z,101264.00
2023-04-28T02:31:57.854Z,101256.00
2023-04-28T02:34:27.894Z,101267.00
2023-04-28T02:36:57.851Z,101262.00
2023-04-28T02:39:31.320Z,101250.00
2023-04-28T02:42:01.358Z,101270.00
2023-04-28T02:44:31.400Z,101255.00
2023-04-28T02:47:02.166Z,101254.00
2023-04-28T02:49:32.300Z,101244.00
2023-04-28T02:52:02.250Z,101246.00
2023-04-28T02:54:36.713Z,101241.00
2023-04-28T02:57:07.413Z,101244.00
2023-04-28T02:59:37.397Z,101240.00
2023-04-28T03:02:07.381Z,101247.00
2023-04-28T03:04:37.419Z,101250.00
2023-04-28T03:07:07.473Z,101237.00
2023-04-28T03:09:42.175Z,101242.00
2023-04-28T03:12:12.352Z,101233.00
2023-04-28T03:14:42.303Z,101238.00
2023-04-28T03:17:14.536Z,101235.00
2023-04-28T03:19:44.489Z,101243.00
2023-04-28T03:22:14.830Z,101241.00
2023-04-28T03:24:47.346Z,101237.00
2023-04-28T03:27:17.480Z,101228.00
2023-04-28T03:29:47.441Z,101232.00
2023-04-28T03:32:17.482Z,101221.00
2023-04-28T03:34:47.516Z,101232.00
2023-04-28T03:37:17.496Z,101223.00
2023-04-28T03:39:50.011Z,101231.00
2023-04-28T03:42:19.960Z,101225.00
2023-04-28T03:44:49.920Z,101227.00
2023-04-28T03:47:19.898Z,101229.00
2023-04-28T03:49:49.858Z,101222.00
2023-04-28T03:52:19.831Z,101233.00
2023-04-28T03:54:52.342Z,101224.00
2023-04-28T03:57:22.286Z,101219.00
2023-04-28T03:59:52.311Z,101216.00
2023-04-28T04:02:22.376Z,101213.00
2023-04-28T04:04:52.836Z,101223.00
2023-04-28T04:07:23.246Z,101221.00
2023-04-28T04:09:56.261Z,101225.00
2023-04-28T04:12:26.290Z,101216.00
2023-04-28T04:14:56.243Z,101216.00
2023-04-28T04:17:26.613Z,101211.00
2023-04-28T04:19:56.576Z,101204.00
2023-04-28T04:22:26.536Z,101202.00
2023-04-28T04:24:59.099Z,101197.00
2023-04-28T04:27:29.224Z,101200.00
2023-04-28T04:29:59.199Z,101203.00
2023-04-28T04:32:29.206Z,101204.00
2023-04-28T04:34:59.195Z,101202.00
2023-04-28T04:37:29.345Z,101202.00
2023-04-28T04:40:01.905Z,101196.00
2023-04-28T04:42:31.954Z,101193.00
2023-04-28T04:45:01.930Z,101191.00
2023-04-28T04:47:32.053Z,101197.00
2023-04-28T04:50:02.148Z,101198.00
2023-04-28T04:52:32.252Z,101189.00
2023-04-28T04:55:04.810Z,101184.00
2023-04-28T04:57:34.963Z,101193.00
2023-04-28T05:00:04.970Z,101172.00
2023-04-28T05:02:35.238Z,101183.00
2023-04-28T05:05:19.899Z,101174.00
2023-04-28T05:07:51.471Z,101175.00
2023-04-28T05:10:24.478Z,101174.00
2023-04-28T05:12:54.577Z,101170.00
2023-04-28T05:15:24.937Z,101166.00
2023-04-28T05:17:57.889Z,101171.00
2023-04-28T05:20:28.007Z,101173.00
2023-04-28T05:22:57.991Z,101168.00
2023-04-28T05:25:30.788Z,101177.00
2023-04-28T05:28:04.980Z,101176.00
2023-04-28T05:30:34.970Z,101164.00
2023-04-28T05:33:05.056Z,101173.00
2023-04-28T05:35:35.278Z,101164.00
2023-04-28T05:38:05.312Z,101167.00
2023-04-28T05:40:37.888Z,101164.00
2023-04-28T05:43:07.912Z,101169.00
2023-04-28T05:45:37.928Z,101169.00
2023-04-28T05:48:08.918Z,101160.00
2023-04-28T05:50:39.279Z,101161.00
2023-04-28T05:53:10.095Z,101159.00
2023-04-28T05:55:42.726Z,101163.00
2023-04-28T05:58:12.920Z,101153.00
2023-04-28T06:00:42.918Z,101151.00
2023-04-28T06:03:15.059Z,101151.00
2023-04-28T06:05:45.511Z,101147.00
2023-04-28T06:08:15.686Z,101148.00
2023-04-28T06:10:48.260Z,101144.00
2023-04-28T06:13:18.218Z,101138.00
2023-04-28T06:15:48.304Z,101139.00
2023-04-28T06:18:18.581Z,101134.00
2023-04-28T06:20:48.610Z,101148.00
2023-04-28T06:23:18.666Z,101146.00
2023-04-28T06:25:51.300Z,101130.00
2023-04-28T06:28:21.276Z,101130.00
2023-04-28T06:30:51.415Z,101129.00
2023-04-28T06:33:21.468Z,101127.00
2023-04-28T06:35:51.448Z,101124.00
2023-04-28T06:38:21.469Z,101120.00
2023-04-28T06:40:54.070Z,101127.00
2023-04-28T06:43:24.039Z,101112.00
2023-04-28T06:45:53.991Z,101116.00
2023-04-28T06:48:25.519Z,101119.00
2023-04-28T06:50:55.533Z,101113.00
2023-04-28T06:53:25.493Z,101116.00
2023-04-28T06:55:59.285Z,101111.00
2023-04-28T06:58:29.327Z,101110.00
2023-04-28T07:00:59.355Z,101111.00
2023-04-28T07:03:30.424Z,101107.00
2023-04-28T07:06:01.273Z,101102.00
2023-04-28T07:08:31.289Z,101093.00
2023-04-28T07:11:05.009Z,101106.00
2023-04-28T07:13:35.201Z,101094.00
2023-04-28T07:16:11.460Z,101099.00
2023-04-28T07:18:41.820Z,101092.00
2023-04-28T07:21:14.743Z,101091.00
2023-04-28T07:23:46.271Z,101089.00
2023-04-28T07:26:21.016Z,101089.00
2023-04-28T07:28:52.373Z,101093.00
2023-04-28T07:31:23.945Z,101094.00
2023-04-28T07:33:54.339Z,101088.00
2023-04-28T07:36:28.429Z,101081.00
2023-04-28T07:38:59.762Z,101077.00
2023-04-28T07:41:33.280Z,101076.00
2023-04-28T07:44:05.242Z,101063.00
2023-04-28T07:46:35.984Z,101071.00
2023-04-28T07:49:10.918Z,101066.00
2023-04-28T07:51:41.216Z,101065.00
2023-04-28T07:54:11.251Z,101058.00
2023-04-28T07:56:43.861Z,101066.00
2023-04-28T07:59:13.848Z,101059.00
2023-04-28T08:01:44.101Z,101057.00
2023-04-28T08:04:14.825Z,101055.00
2023-04-28T08:06:50.535Z,101043.00
2023-04-28T08:09:20.677Z,101045.00
2023-04-28T08:11:53.295Z,101039.00
2023-04-28T08:14:35.054Z,101039.00
2023-04-28T08:17:05.062Z,101040.00
2023-04-28T08:19:35.467Z,101038.00
2023-04-28T08:22:07.425Z,101042.00
2023-04-28T08:24:37.421Z,101030.00
2023-04-28T08:27:10.171Z,101028.00
2023-04-28T08:29:40.504Z,101033.00
2023-04-28T08:32:10.484Z,101034.00
2023-04-28T08:34:40.457Z,101026.00
2023-04-28T08:37:11.164Z,101026.00
2023-04-28T08:39:41.100Z,101023.00
2023-04-28T08:42:13.678Z,101023.00
2023-04-28T08:44:43.995Z,101022.00
2023-04-28T08:47:16.660Z,101027.00
2023-04-28T08:49:48.492Z,101033.00
2023-04-28T08:52:22.019Z,101023.00
2023-04-28T08:54:53.922Z,101010.00
2023-04-28T08:57:27.427Z,101015.00
2023-04-28T08:59:57.712Z,101015.00
2023-04-28T09:02:27.887Z,101008.00
2023-04-28T09:04:58.429Z,100999.00
2023-04-28T09:07:28.578Z,100992.00
2023-04-28T09:10:19.587Z,100998.00
2023-04-28T09:12:55.397Z,100998.00
2023-04-28T09:15:34.599Z,100988.00
2023-04-28T09:18:06.417Z,100990.00
2023-04-28T09:20:38.280Z,100973.00
2023-04-28T09:23:20.332Z,100981.00
2023-04-28T09:26:02.063Z,100966.00
2023-04-28T09:28:35.008Z,100981.00
2023-04-28T09:31:05.934Z,100981.00
2023-04-28T09:33:36.163Z,100960.00
2023-04-28T09:36:06.426Z,100982.00
2023-04-28T09:38:47.073Z,100970.00
2023-04-28T09:41:17.179Z,100955.00
2023-04-28T09:43:49.793Z,100955.00
2023-04-28T09:46:32.695Z,100960.00
2023-04-28T09:49:04.701Z,100955.00
2023-04-28T09:51:35.692Z,100959.00
2023-04-28T09:54:07.236Z,100943.00
2023-04-28T09:56:41.445Z,100947.00
2023-04-28T09:59:14.305Z,100952.00
2023-04-28T10:01:46.374Z,100945.00
2023-04-28T10:04:17.376Z,100942.00
2023-04-28T10:06:47.671Z,100935.00
2023-04-28T10:09:18.279Z,100940.00
2023-04-28T10:11:49.053Z,100932.00
2023-04-28T10:14:22.305Z,100936.00
2023-04-28T10:16:54.791Z,100928.00
2023-04-28T10:19:25.022Z,100930.00
2023-04-28T10:22:13.776Z,100930.00
2023-04-28T10:25:02.167Z,100927.00
2023-04-28T10:27:34.036Z,100921.00
2023-04-28T10:32:51.741Z,100910.00
2023-04-28T10:35:47.941Z,100908.00
2023-04-28T10:38:21.549Z,100910.00
2023-04-28T10:40:52.709Z,100901.00
2023-04-28T10:43:39.616Z,100899.00
2023-04-28T10:46:15.934Z,100897.00
2023-04-28T10:49:01.804Z,100897.00
2023-04-28T10:51:33.353Z,100890.00
2023-04-28T10:54:20.197Z,100886.00
2023-04-28T10:57:32.275Z,100882.00
2023-04-28T11:00:33.261Z,100878.00
2023-04-28T11:03:06.565Z,100882.00
2023-04-28T11:05:37.450Z,100877.00
2023-04-28T11:08:34.694Z,100870.00
2023-04-28T11:11:21.660Z,100859.00
2023-04-28T11:13:52.377Z,100873.00
2023-04-28T11:16:29.050Z,100865.00
2023-04-28T11:19:06.209Z,100864.00
2023-04-28T11:21:36.577Z,100861.00
2023-04-28T11:24:14.126Z,100865.00
2023-04-28T11:26:44.670Z,100859.00
2023-04-28T11:29:15.745Z,100860.00
2023-04-28T11:31:53.045Z,100858.00
2023-04-28T11:34:26.905Z,100847.00
2023-04-28T11:36:57.336Z,100839.00
2023-04-28T11:39:32.371Z,100845.00
2023-04-28T11:42:04.353Z,100844.00
2023-04-28T11:44:34.693Z,100836.00
2023-04-28T11:47:07.126Z,100844.00
2023-04-28T11:49:49.519Z,100839.00
2023-04-28T11:52:20.784Z,100838.00
2023-04-28T11:54:56.822Z,100836.00
2023-04-28T11:57:26.977Z,100844.00
2023-04-28T11:59:57.163Z,100844.00
2023-04-28T12:02:32.001Z,100829.00
2023-04-28T12:05:13.121Z,100833.00
2023-04-28T12:07:47.661Z,100828.00
2023-04-28T12:10:20.030Z,100816.00
2023-04-28T12:12:53.130Z,100825.00
2023-04-28T12:15:25.562Z,100819.00
2023-04-28T12:17:55.612Z,100821.00
2023-04-28T12:20:42.815Z,100814.00
2023-04-28T12:23:12.866Z,100815.00
2023-04-28T12:25:51.673Z,100816.00
2023-04-28T12:28:21.668Z,100806.00
2023-04-28T12:30:51.731Z,100805.00
2023-04-28T12:33:29.796Z,100812.00
2023-04-28T12:36:02.736Z,100804.00
2023-04-28T12:38:33.266Z,100806.00
2023-04-28T12:41:03.278Z,100811.00
2023-04-28T12:43:33.751Z,100796.00
2023-04-28T12:46:04.246Z,100797.00
2023-04-28T12:48:35.046Z,100790.00
2023-04-28T12:51:09.060Z,100797.00
2023-04-28T12:53:39.033Z,100795.00
2023-04-28T12:56:10.502Z,100793.00
2023-04-28T12:58:41.251Z,100796.00
2023-04-28T13:01:11.292Z,100786.00
2023-04-28T13:03:41.407Z,100786.00
2023-04-28T13:06:14.224Z,100779.00
2023-04-28T13:08:45.126Z,100769.00
2023-04-28T13:11:22.853Z,100777.00
2023-04-28T13:13:53.498Z,100769.00
2023-04-28T13:16:25.315Z,100768.00
2023-04-28T13:18:55.310Z,100768.00
2023-04-28T13:21:28.802Z,100760.00
2023-04-28T13:23:59.494Z,100764.00
2023-04-28T13:26:30.458Z,100757.00
2023-04-28T13:29:00.686Z,100750.00
2023-04-28T13:31:30.714Z,100753.00
2023-04-28T13:34:02.188Z,100746.00
2023-04-28T13:36:35.551Z,100756.00
2023-04-28T13:39:06.447Z,100744.00
2023-04-28T13:41:36.997Z,100742.00
2023-04-28T13:44:07.017Z,100739.00
2023-04-28T13:46:37.007Z,100741.00
2023-04-28T13:49:07.439Z,100741.00
2023-04-28T13:51:40.086Z,100744.00
2023-04-28T13:54:11.742Z,100738.00
2023-04-28T13:56:41.781Z,100738.00
2023-04-28T13:59:12.278Z,100737.00
2023-04-28T14:01:42.325Z,100734.00
2023-04-28T14:04:12.543Z,100728.00
2023-04-28T14:06:45.372Z,100726.00
2023-04-28T14:09:15.335Z,100725.00
2023-04-28T14:11:45.339Z,100725.00
2023-04-28T14:14:15.345Z,100728.00
2023-04-28T14:16:45.397Z,100718.00
2023-04-28T14:19:18.452Z,100717.00
2023-04-28T14:21:51.011Z,100720.00
2023-04-28T14:24:21.277Z,100723.00
2023-04-28T14:26:51.532Z,100702.00
2023-04-28T14:29:21.589Z,100717.00
2023-04-28T14:31:51.658Z,100708.00
2023-04-28T14:34:21.774Z,100709.00
2023-04-28T14:36:54.588Z,100705.00
2023-04-28T14:39:24.570Z,100691.00
2023-04-28T14:41:54.556Z,100692.00
2023-04-28T14:44:24.502Z,100687.00
2023-04-28T14:46:54.592Z,100686.00
2023-04-28T14:49:24.644Z,100688.00
2023-04-28T14:51:57.645Z,100680.00
2023-04-28T14:54:27.602Z,100677.00
2023-04-28T14:56:58.730Z,100684.00
2023-04-28T14:59:29.948Z,100680.00
2023-04-28T15:02:00.038Z,100678.00
2023-04-28T15:04:31.579Z,100666.00
2023-04-28T15:07:04.237Z,100679.00
2023-04-28T15:09:34.366Z,100667.00
2023-04-28T15:12:05.190Z,100659.00
2023-04-28T15:14:35.455Z,100653.00
2023-04-28T15:17:05.524Z,100660.00
2023-04-28T15:19:35.753Z,100659.00
2023-04-28T15:22:08.475Z,100657.00
2023-04-28T15:24:38.477Z,100655.00
2023-04-28T15:27:08.717Z,100651.00
2023-04-28T15:29:38.763Z,100645.00
2023-04-28T15:32:09.693Z,100640.00
2023-04-28T15:34:40.058Z,100647.00
2023-04-28T15:37:45.057Z,100643.00
2023-04-28T15:40:18.109Z,100644.00
2023-04-28T15:42:49.613Z,100647.00
2023-04-28T15:45:21.318Z,100647.00
2023-04-28T15:47:55.138Z,100657.00
2023-04-28T15:50:25.286Z,100647.00
2023-04-28T15:52:58.298Z,100642.00
2023-04-28T15:55:28.429Z,100635.00
2023-04-28T15:57:58.739Z,100642.00
2023-04-28T16:00:28.695Z,100642.00
2023-04-28T16:02:58.795Z,100640.00
2023-04-28T16:05:29.151Z,100645.00
2023-04-28T16:08:01.902Z,100638.00
2023-04-28T16:10:32.120Z,100636.00
2023-04-28T16:13:02.130Z,100632.00
2023-04-28T16:15:34.034Z,100636.00
2023-04-28T16:18:04.101Z,100631.00
2023-04-28T16:20:34.194Z,100633.00
2023-04-28T16:23:09.429Z,100628.00
2023-04-28T16:25:39.393Z,100626.00
2023-04-28T16:28:09.396Z,100632.00
2023-04-28T16:30:39.382Z,100634.00
2023-04-28T16:33:09.729Z,100633.00
2023-04-28T16:35:39.839Z,100624.00
2023-04-28T16:38:12.477Z,100618.00
2023-04-28T16:40:42.462Z,100628.00
2023-04-28T16:43:12.451Z,100630.00
2023-04-28T16:45:42.983Z,100628.00
2023-04-28T16:48:13.020Z,100627.00
2023-04-28T16:50:42.970Z,100628.00
2023-04-28T16:53:15.570Z,100626.00
2023-04-28T16:55:46.036Z,100627.00
2023-04-28T16:58:16.121Z,100621.00
2023-04-28T17:00:46.226Z,100616.00
2023-04-28T17:03:16.522Z,100623.00
2023-04-28T17:05:46.659Z,100623.00
2023-04-28T17:08:19.204Z,100623.00
2023-04-28T17:10:49.320Z,100621.00
2023-04-28T17:13:19.312Z,100617.00
2023-04-28T17:15:57.944Z,100621.00
2023-04-28T17:18:28.730Z,100619.00
2023-04-28T17:20:59.574Z,100609.00
2023-04-28T17:23:32.108Z,100608.00
2023-04-28T17:26:03.458Z,100603.00
2023-04-28T17:28:33.832Z,100606.00
2023-04-28T17:31:04.318Z,100598.00
2023-04-28T17:33:34.333Z,100599.00
2023-04-28T17:36:05.673Z,100596.00
2023-04-28T17:38:38.565Z,100599.00
2023-04-28T17:41:08.553Z,100600.00
2023-04-28T17:43:39.533Z,100600.00
2023-04-28T17:46:10.357Z,100592.00
2023-04-28T17:48:40.596Z,100600.00
2023-04-28T17:51:10.693Z,100598.00
2023-04-28T17:53:43.429Z,100593.00
2023-04-28T17:56:13.451Z,100601.00
2023-04-28T17:58:43.714Z,100602.00
2023-04-28T18:01:13.701Z,100605.00
2023-04-28T18:03:43.773Z,100612.00
2023-04-28T18:06:14.306Z,100601.00
2023-04-28T18:08:47.057Z,100603.00
2023-04-28T18:11:17.151Z,100602.00
2023-04-28T18:13:47.194Z,100604.00
2023-04-28T18:16:17.193Z,100606.00
2023-04-28T18:18:48.184Z,100607.00
2023-04-28T18:21:18.245Z,100604.00
2023-04-28T18:23:50.847Z,100599.00
2023-04-28T18:26:22.317Z,100602.00
2023-04-28T18:28:52.271Z,100609.00
2023-04-28T18:31:22.284Z,100609.00
2023-04-28T18:33:52.291Z,100603.00
2023-04-28T18:36:22.285Z,100608.00
2023-04-28T18:38:54.823Z,100601.00
2023-04-28T18:41:24.940Z,100605.00
2023-04-28T18:43:54.946Z,100599.00
2023-04-28T18:46:24.935Z,100591.00
2023-04-28T18:48:55.079Z,100591.00
2023-04-28T18:51:25.481Z,100595.00
2023-04-28T18:53:58.030Z,100588.00
2023-04-28T18:56:28.024Z,100592.00
2023-04-28T18:58:58.237Z,100593.00
2023-04-28T19:01:28.312Z,100582.00
2023-04-28T19:03:58.593Z,100583.00
2023-04-28T19:06:28.777Z,100587.00
2023-04-28T19:09:01.654Z,100589.00
2023-04-28T19:11:32.119Z,100588.00
2023-04-28T19:14:02.073Z,100583.00
2023-04-28T19:16:32.103Z,100588.00
2023-04-28T19:19:02.104Z,100588.00
2023-04-28T19:21:34.400Z,100578.00
2023-04-28T19:24:07.532Z,100568.00
2023-04-28T19:26:37.652Z,100587.00
2023-04-28T19:29:07.940Z,100569.00
2023-04-28T19:31:37.987Z,100579.00
2023-04-28T19:34:08.020Z,100575.00
2023-04-28T19:36:39.321Z,100591.00
2023-04-28T19:39:11.915Z,100580.00
2023-04-28T19:41:41.872Z,100578.00
2023-04-28T19:44:11.827Z,100576.00
2023-04-28T19:46:42.562Z,100576.00
2023-04-28T19:49:13.721Z,100578.00
2023-04-28T19:51:43.703Z,100566.00
2023-04-28T19:54:16.809Z,100565.00
2023-04-28T19:56:47.017Z,100565.00
2023-04-28T19:59:17.831Z,100565.00
2023-04-28T20:01:47.927Z,100563.00
2023-04-28T20:04:18.564Z,100563.00
2023-04-28T20:06:49.063Z,100570.00
2023-04-28T20:09:21.677Z,100568.00
2023-04-28T20:11:51.631Z,100563.00
2023-04-28T20:14:22.596Z,100560.00
2023-04-28T20:16:52.588Z,100563.00
2023-04-28T20:19:22.714Z,100559.00
2023-04-28T20:21:53.067Z,100570.00
2023-04-28T20:24:26.282Z,100560.00
2023-04-28T20:26:56.523Z,100562.00
2023-04-28T20:29:27.214Z,100564.00
2023-04-28T20:31:57.587Z,100557.00
2023-04-28T20:34:27.991Z,100558.00
2023-04-28T20:36:58.214Z,100554.00
2023-04-28T20:39:30.860Z,100555.00
2023-04-28T20:42:00.887Z,100551.00
2023-04-28T20:44:30.894Z,100549.00
2023-04-28T20:47:01.659Z,100547.00
2023-04-28T20:49:32.164Z,100551.00
2023-04-28T20:52:06.730Z,100539.00
2023-04-28T20:54:39.999Z,100533.00
2023-04-28T20:57:09.975Z,100522.00
2023-04-28T20:59:39.939Z,100532.00
2023-04-28T21:02:10.213Z,100530.00
2023-04-28T21:04:40.177Z,100526.00
2023-04-28T21:07:10.131Z,100526.00
2023-04-28T21:09:42.831Z,100525.00
2023-04-28T21:12:12.805Z,100527.00
2023-04-28T21:14:42.881Z,100514.00
2023-04-28T21:17:12.862Z,100512.00
2023-04-28T21:19:43.080Z,100516.00
2023-04-28T21:22:14.380Z,100510.00
2023-04-28T21:24:46.974Z,100511.00
2023-04-28T21:27:16.909Z,100512.00
2023-04-28T21:29:47.065Z,100512.00
2023-04-28T21:32:17.150Z,100503.00
2023-04-28T21:34:50.361Z,100498.00
2023-04-28T21:37:20.510Z,100495.00
2023-04-28T21:39:53.490Z,100506.00
2023-04-28T21:42:23.450Z,100494.00
2023-04-28T21:44:53.571Z,100490.00
2023-04-28T21:47:23.503Z,100489.00
2023-04-28T21:49:53.473Z,100491.00
2023-04-28T21:52:23.461Z,100483.00
2023-04-28T21:54:56.002Z,100487.00
2023-04-28T21:57:26.014Z,100485.00
2023-04-28T21:59:56.160Z,100489.00
2023-04-28T22:02:26.308Z,100483.00
2023-04-28T22:04:57.266Z,100492.00
2023-04-28T22:07:28.766Z,100487.00
2023-04-28T22:10:01.331Z,100479.00
2023-04-28T22:12:31.300Z,100485.00
2023-04-28T22:15:01.650Z,100478.00
2023-04-28T22:17:31.727Z,100478.00
2023-04-28T22:20:01.756Z,100476.00
2023-04-28T22:22:33.496Z,100476.00
2023-04-28T22:25:06.127Z,100469.00
2023-04-28T22:27:36.113Z,100462.00
2023-04-28T22:30:08.459Z,100461.00
2023-04-28T22:32:38.483Z,100455.00
2023-04-28T22:35:10.417Z,100460.00
2023-04-28T22:37:40.768Z,100444.00
2023-04-28T22:40:14.153Z,100450.00
2023-04-28T22:42:45.455Z,100450.00
2023-04-28T22:45:15.798Z,100454.00
2023-04-28T22:47:47.105Z,100443.00
2023-04-28T22:50:17.328Z,100434.00
2023-04-28T22:52:47.838Z,100443.00
2023-04-28T22:55:20.620Z,100434.00
2023-04-28T22:57:53.283Z,100437.00
2023-04-28T23:00:23.563Z,100434.00
2023-04-28T23:02:53.582Z,100438.00
2023-04-28T23:05:23.647Z,100431.00
2023-04-28T23:07:53.602Z,100427.00
2023-04-28T23:10:26.308Z,100428.00
2023-04-28T23:12:56.264Z,100433.00
2023-04-28T23:15:26.229Z,100419.00
2023-04-28T23:17:56.262Z,100434.00
2023-04-28T23:20:26.348Z,100421.00
2023-04-28T23:22:56.895Z,100413.00
2023-04-28T23:25:29.473Z,100416.00
2023-04-28T23:27:59.442Z,100414.00
2023-04-28T23:30:29.883Z,100409.00
2023-04-28T23:33:00.656Z,100418.00
2023-04-28T23:35:30.768Z,100416.00
2023-04-28T23:38:00.787Z,100408.00
2023-04-28T23:40:33.342Z,100400.00
2023-04-28T23:43:03.430Z,100395.00
2023-04-28T23:45:33.493Z,100404.00
2023-04-28T23:48:03.467Z,100400.00
2023-04-28T23:50:33.440Z,100396.00
2023-04-28T23:53:03.395Z,100387.00
2023-04-28T23:55:35.990Z,100394.00
2023-04-28T23:58:06.012Z,100385.00
